EFTP

Tampere-Pirkkala Airport

Tampere / Pirkkala, Finland
METAR EFTP 220520Z AUTO 19011KT 9999 -RA FEW008 SCT012 BKN015 OVC055 12/10 Q0989
Observed Flight Rules
Jun-22 @ 05:20 UTC (29 minutes ago) Marginal Visual Flight Rules
Wind Visibility Clouds Conditions
190° at 11 knots 10,000+ meters
  • Few at 800' AGL
  • Scattered at 1,200' AGL
  • Broken at 1,500' AGL
  • Overcast at 5,500' AGL
  • Light Rain
Temperatures Readings
Current 12°C / 54°F
Dewpoint 10°C / 50°F
Humidity 88%
Altimeter 29.2" Hg
Pressure 989 hPa
Elevation 112
METAR EFTP 220520Z AUTO 19011KT 9999 -RA FEW008 SCT012 BKN015 OVC055 12/10 Q0989
Observed Flight Rules
Jun-22 @ 05:20 UTC
(29 minutes ago)
MVFR
Wind Visibility
190° at 11 knots 10,000+ meters
Clouds
  • Few at 800' AGL
  • Scattered at 1,200' AGL
  • Broken at 1,500' AGL
  • Overcast at 5,500' AGL
Conditions
  • Light Rain
Temperature Dewpoint
12°C / 54°F 10°C / 50°F
Humidity Altimeter Pressure
88% 29.2" Hg 989 hPa